Montgomery, WV (25136)

2:31 AM EDT on October 02, 2014 (GMT -0400)
KWVGLENF2 | Change Station
CLOSE
Current Station
Personal Weather Station
Location: Glen Ferris, WV
Elevation: 676 ft
Nearby Weather Stations

Elev 676 ft 38.15 °N, 81.22 °W | Updated 27 minutes ago

Mostly Cloudy
Mostly Cloudy
63.3 °F
Feels Like 63.3 °F
N
0.0
Wind Variable Wind from SSW
Gusts 0.0 mph

Today
High -- | Low -- °F
--% Chance of Precip.
Yesterday
High -- | Low -- °F
Precip. -- in
7:21 AM 7:06 PM
First Quarter, 55% visible
Pressure 30.04 in
Visibility 0.2 miles
Clouds
Dew Point 60 °F
Humidity 90%
Rainfall 0.00 in
Snow Depth Not available.
UV Not available.
Pollen 2.90 out of 12
Air Quality Not available.
Flu Activity Not available.
METAR KCRW 020554Z 00000KT 1/4SM FG VV001 13/13 A3005 RMK AO2 SLP171 T01330128 10172 20133 55002 RVRNO $

More Conditions Fewer Conditions

Pressure 30.04 in
Visibility 0.2 miles
Clouds
Dew Point 60 °F
Humidity 90%
Rainfall 0.00 in
Snow Depth Not available.
UV Not available.
Pollen 2.90 out of 12
Air Quality Not available.
Flu Activity Not available.
METAR KCRW 020554Z 00000KT 1/4SM FG VV001 13/13 A3005 RMK AO2 SLP171 T01330128 10172 20133 55002 RVRNO $

More Conditions Fewer Conditions

10-Day Weather Forecast

Almanac

Astronomy

Oct. 02, 2014 Rise Set
Actual Time 7:21 AM EDT 7:06 PM EDT
Civil Twilight 6:55 AM EDT 7:32 PM EDT
Nautical Twilight 6:24 AM EDT 8:03 PM EDT
Astronomical Twilight 5:54 AM EDT 8:34 PM EDT
Moon 3:07 PM EDT 12:42 AM EDT
Length of Visible Light 12h 37m
Length of Day
11h 44m
Tomorrow will be 2m 26s shorter.
First Quarter, 55% of the Moon is Illuminated
Today
First Quarter
Oct 8
Full
Oct 15
Last Quarter
Oct 23
New
Oct 30
First Quarter

Today's Extremes

State Highs State Lows

Community

WunderPhotos

Upload Photos

1,758,198 photos uploaded!

WunderBlogs® & News

Nearby

Snow Depth

Station Depth Elevation
No new snow has been reported.

Earthquake Activity

City Distance Mag. Time & Date
No recent earthquake activity has been reported nearby.
Minimum magnitude displayed is 2.5.

Coastal Water Temperatures

Place Temperature
No Stations Reporting

Nearby Weather Stations